Time;durP1;ratioP1;P1;durP2;ratioP2;P2;SDS_P1;SDS_P2;PMS_P1;PMS_P2;Temp;Humidity;BMP_temperature;BMP_pressure;BME280_temperature;BME280_humidity;BME280_pressure;Samples;Min_cycle;Max_cycle;Signal;HPM_P1;HPM_P2
2021/01/04 00:02:30;;;;;;;42.57;21.27;;;2.20;93.80;;;;;;5075238;28;20197;-80
2021/01/04 00:05:23;;;;;;;46.90;21.73;;;2.30;93.80;;;;;;5068833;28;20651;-81
2021/01/04 00:08:25;;;;;;;42.77;22.20;;;2.20;93.80;;;;;;5072452;28;20701;-81
2021/01/04 00:11:22;;;;;;;44.90;20.73;;;2.20;93.80;;;;;;5077508;28;20564;-80
2021/01/04 00:14:02;;;;;;;46.00;21.43;;;2.20;93.80;;;;;;5077441;28;20209;-81
2021/01/04 00:16:40;;;;;;;51.73;25.27;;;2.20;93.80;;;;;;5074964;28;20208;-82
2021/01/04 00:19:14;;;;;;;47.40;22.97;;;2.20;93.80;;;;;;5062410;28;20475;-82
2021/01/04 00:21:50;;;;;;;50.97;24.47;;;2.20;93.80;;;;;;5073536;28;20188;-80
2021/01/04 00:24:34;;;;;;;38.17;18.43;;;2.20;93.80;;;;;;5074493;28;20223;-82
2021/01/04 00:27:09;;;;;;;53.90;25.53;;;2.10;93.80;;;;;;5061760;28;20328;-81
2021/01/04 00:29:38;;;;;;;56.07;26.37;;;2.20;93.80;;;;;;5066825;28;20970;-81
2021/01/04 00:32:17;;;;;;;26.67;11.63;;;2.20;93.80;;;;;;5062785;28;20233;-80
2021/01/04 00:34:48;;;;;;;43.87;21.90;;;2.20;93.80;;;;;;5069091;28;20235;-81
2021/01/04 00:37:55;;;;;;;44.93;21.13;;;2.30;93.90;;;;;;5070702;28;20204;-82
2021/01/04 00:40:32;;;;;;;47.37;20.60;;;2.20;93.80;;;;;;5072469;28;20229;-81
2021/01/04 00:43:12;;;;;;;38.53;15.47;;;2.30;93.90;;;;;;5062099;28;20189;-80
2021/01/04 00:45:45;;;;;;;46.00;22.10;;;2.30;93.90;;;;;;5074693;28;20250;-81
2021/01/04 00:48:20;;;;;;;45.30;22.33;;;2.30;93.90;;;;;;5073035;28;20227;-82
2021/01/04 00:51:00;;;;;;;41.40;18.23;;;2.30;93.90;;;;;;5065074;28;20196;-82
2021/01/04 00:53:31;;;;;;;43.50;21.87;;;2.30;93.90;;;;;;5077718;28;20196;-82
2021/01/04 00:56:27;;;;;;;46.00;21.90;;;2.30;93.90;;;;;;5070541;28;20725;-80
2021/01/04 00:59:30;;;;;;;48.47;23.37;;;2.30;93.90;;;;;;5060348;28;20576;-81
2021/01/04 01:02:32;;;;;;;49.43;24.10;;;2.30;93.90;;;;;;5064057;28;20235;-80
2021/01/04 01:05:07;;;;;;;50.30;23.67;;;2.30;93.90;;;;;;5058748;28;20195;-82
2021/01/04 01:08:23;;;;;;;35.30;16.65;;;2.20;93.90;;;;;;5077905;28;20203;-82
2021/01/04 01:10:56;;;;;;;42.07;20.63;;;2.30;93.90;;;;;;5054748;28;20861;-81
2021/01/04 01:13:53;;;;;;;44.93;22.20;;;2.40;93.90;;;;;;5070191;28;20288;-82
2021/01/04 01:16:34;;;;;;;46.33;22.10;;;2.40;93.90;;;;;;5076612;28;20239;-80
2021/01/04 01:19:20;;;;;;;46.97;21.67;;;2.30;93.90;;;;;;5098979;28;20207;-82
2021/01/04 01:21:49;;;;;;;43.87;18.57;;;2.30;93.90;;;;;;5091485;28;20188;-81
2021/01/04 01:24:17;;;;;;;47.53;23.23;;;2.40;93.90;;;;;;5078772;28;20200;-80
2021/01/04 01:27:07;;;;;;;48.10;23.40;;;2.20;93.80;;;;;;5063058;28;20201;-81
2021/01/04 01:29:58;;;;;;;47.13;22.20;;;2.40;93.90;;;;;;5071263;28;20223;-81
2021/01/04 01:33:05;;;;;;;38.87;18.30;;;2.40;93.90;;;;;;5064834;28;20212;-81
2021/01/04 01:35:57;;;;;;;24.80;12.07;;;2.40;93.90;;;;;;5078048;28;20208;-81
2021/01/04 01:39:01;;;;;;;39.87;19.97;;;2.50;93.80;;;;;;5064461;28;20204;-79
2021/01/04 01:42:18;;;;;;;28.47;15.53;;;2.50;93.70;;;;;;5068742;28;20189;-82
2021/01/04 01:44:52;;;;;;;30.70;16.40;;;2.50;93.70;;;;;;5062032;28;20250;-81
2021/01/04 01:47:30;;;;;;;39.27;20.27;;;2.50;93.70;;;;;;5059518;28;20695;-81
2021/01/04 01:50:06;;;;;;;41.40;20.33;;;2.50;93.70;;;;;;5072144;28;20231;-82
2021/01/04 01:52:54;;;;;;;41.27;20.37;;;2.50;93.70;;;;;;5077152;28;20434;-79
2021/01/04 01:55:32;;;;;;;27.60;14.30;;;2.50;93.70;;;;;;5075705;28;20626;-80
2021/01/04 01:58:33;;;;;;;39.70;20.27;;;2.50;93.70;;;;;;5075734;28;20296;-82
2021/01/04 02:01:07;;;;;;;34.50;16.57;;;2.50;93.70;;;;;;5065030;28;20650;-80
2021/01/04 02:03:44;;;;;;;34.33;17.53;;;2.50;93.70;;;;;;5072269;28;20208;-79
2021/01/04 02:06:35;;;;;;;42.90;20.53;;;2.50;93.70;;;;;;5076571;28;20282;-81
2021/01/04 02:09:08;;;;;;;43.33;21.97;;;2.60;93.70;;;;;;5065707;28;20611;-82
2021/01/04 02:11:47;;;;;;;41.90;22.40;;;2.50;93.70;;;;;;5076428;28;20513;-81
2021/01/04 02:14:19;;;;;;;43.90;21.20;;;2.50;93.70;;;;;;5086067;28;20192;-82
2021/01/04 02:17:10;;;;;;;43.97;22.10;;;2.50;93.70;;;;;;5072325;28;20202;-81
2021/01/04 02:19:49;;;;;;;43.07;22.40;;;2.50;93.70;;;;;;5077038;28;20185;-80
2021/01/04 02:22:52;;;;;;;45.90;20.97;;;2.50;93.80;;;;;;5092324;28;20226;-80
2021/01/04 02:25:20;;;;;;;47.80;22.97;;;2.50;93.80;;;;;;5041632;28;20573;-80
2021/01/04 02:27:53;;;;;;;47.23;24.43;;;2.70;93.90;;;;;;5087570;28;20208;-81
2021/01/04 02:30:21;;;;;;;50.80;24.57;;;2.60;93.80;;;;;;5083253;28;20211;-81
2021/01/04 02:32:49;;;;;;;49.13;24.97;;;2.60;93.80;;;;;;5087203;28;20189;-80
2021/01/04 02:35:17;;;;;;;45.77;22.83;;;2.60;93.80;;;;;;5097778;28;20199;-81
2021/01/04 02:37:44;;;;;;;51.30;24.43;;;2.60;93.80;;;;;;5096492;28;20182;-80
2021/01/04 02:40:14;;;;;;;50.23;24.53;;;2.50;93.80;;;;;;5083593;28;20481;-83
2021/01/04 02:42:44;;;;;;;51.20;24.03;;;2.70;93.90;;;;;;5089356;28;20515;-81
2021/01/04 02:45:17;;;;;;;50.80;24.23;;;2.70;93.90;;;;;;5096749;28;20303;-82
2021/01/04 02:48:09;;;;;;;48.67;23.13;;;2.60;93.80;;;;;;5096026;28;20189;-80
2021/01/04 02:50:46;;;;;;;46.53;23.83;;;2.50;93.80;;;;;;5090151;28;20183;-80
2021/01/04 02:53:43;;;;;;;48.57;23.50;;;2.70;93.90;;;;;;5095035;28;20181;-79
2021/01/04 02:56:33;;;;;;;48.03;23.13;;;2.50;93.80;;;;;;5060477;28;20222;-80
2021/01/04 02:59:30;;;;;;;45.20;23.00;;;2.50;93.80;;;;;;5081677;28;20248;-81
2021/01/04 03:02:04;;;;;;;47.00;22.47;;;2.50;93.80;;;;;;5083432;28;20477;-80
2021/01/04 03:04:35;;;;;;;49.00;23.30;;;2.50;93.90;;;;;;5086783;28;20181;-79
2021/01/04 03:07:08;;;;;;;50.13;23.57;;;2.60;93.90;;;;;;5098372;28;20858;-81
2021/01/04 03:09:36;;;;;;;48.43;21.87;;;2.60;93.90;;;;;;5090745;28;20249;-81
2021/01/04 03:12:09;;;;;;;48.10;23.00;;;2.60;93.90;;;;;;5103761;28;20177;-81
2021/01/04 03:14:59;;;;;;;51.73;23.37;;;2.60;93.90;;;;;;5092914;28;20209;-80
2021/01/04 03:17:40;;;;;;;43.30;20.30;;;2.60;93.90;;;;;;5095909;28;20181;-81
2021/01/04 03:20:15;;;;;;;42.20;22.20;;;2.60;93.90;;;;;;5091778;28;20239;-82
2021/01/04 03:22:45;;;;;;;49.77;23.57;;;2.60;93.90;;;;;;5098895;28;20184;-81
2021/01/04 03:25:20;;;;;;;48.30;24.03;;;2.60;93.90;;;;;;5103577;28;20201;-82
2021/01/04 03:27:48;;;;;;;41.13;20.90;;;2.60;93.90;;;;;;5100126;28;20189;-80
2021/01/04 03:30:19;;;;;;;43.50;22.57;;;2.60;93.90;;;;;;5097984;28;20210;-81
2021/01/04 03:32:47;;;;;;;45.37;21.17;;;2.60;93.90;;;;;;5105626;28;20262;-81
2021/01/04 03:35:15;;;;;;;48.00;22.73;;;2.60;93.90;;;;;;5095399;28;20192;-81
2021/01/04 03:37:43;;;;;;;42.17;20.67;;;2.60;93.90;;;;;;5101156;28;20215;-82
2021/01/04 03:40:11;;;;;;;49.07;22.27;;;2.60;93.90;;;;;;5099970;28;20189;-80
2021/01/04 03:42:39;;;;;;;42.97;21.43;;;2.60;93.90;;;;;;5099302;28;20192;-81
2021/01/04 03:45:07;;;;;;;43.03;21.60;;;2.60;93.90;;;;;;5108438;28;20398;-81
2021/01/04 03:47:36;;;;;;;42.30;20.77;;;2.60;93.90;;;;;;5093876;28;20423;-80
2021/01/04 03:50:06;;;;;;;41.27;20.77;;;2.60;93.90;;;;;;5071321;28;20287;-80
2021/01/04 03:52:33;;;;;;;43.07;20.80;;;2.60;93.90;;;;;;5070496;28;20202;-80
2021/01/04 03:55:01;;;;;;;45.67;19.10;;;2.60;93.90;;;;;;5065216;28;20213;-80
2021/01/04 03:57:28;;;;;;;41.57;20.23;;;2.70;93.90;;;;;;5048925;28;20208;-80
2021/01/04 03:59:56;;;;;;;39.77;20.50;;;2.70;93.90;;;;;;5070860;28;20200;-80
2021/01/04 04:02:23;;;;;;;42.67;21.10;;;2.70;93.90;;;;;;5068424;28;20209;-80
2021/01/04 04:04:52;;;;;;;41.87;20.93;;;2.60;93.90;;;;;;5079506;28;20189;-81
2021/01/04 04:07:19;;;;;;;39.57;20.60;;;2.70;93.90;;;;;;5069163;28;20613;-81
2021/01/04 04:09:47;;;;;;;44.63;21.00;;;2.70;93.90;;;;;;5068607;28;20226;-81
2021/01/04 04:12:15;;;;;;;43.00;20.43;;;2.70;93.90;;;;;;5094555;28;20180;-80
2021/01/04 04:14:47;;;;;;;41.97;20.90;;;2.70;93.90;;;;;;5087793;28;20204;-79
2021/01/04 04:17:15;;;;;;;43.47;21.63;;;2.70;93.90;;;;;;5079149;28;20855;-79
2021/01/04 04:19:44;;;;;;;39.37;19.13;;;2.60;93.90;;;;;;5080864;28;20203;-82
2021/01/04 04:22:13;;;;;;;40.03;20.20;;;2.70;93.90;;;;;;5077643;28;20216;-81
2021/01/04 04:24:41;;;;;;;40.30;20.23;;;2.70;93.90;;;;;;5079630;28;20216;-81
2021/01/04 04:27:09;;;;;;;41.70;20.70;;;2.70;93.90;;;;;;5075073;28;20554;-81
2021/01/04 04:29:39;;;;;;;37.53;20.27;;;2.70;93.90;;;;;;5067050;28;20618;-80
2021/01/04 04:32:07;;;;;;;39.63;20.17;;;2.70;93.90;;;;;;5076920;28;20463;-83
2021/01/04 04:34:36;;;;;;;36.47;17.30;;;2.70;93.90;;;;;;5064811;28;20193;-81
2021/01/04 04:37:05;;;;;;;37.53;19.80;;;2.70;93.90;;;;;;5067236;28;20193;-82
2021/01/04 04:39:33;;;;;;;40.17;19.93;;;2.70;93.90;;;;;;5071365;28;20199;-80
2021/01/04 04:42:04;;;;;;;39.97;19.77;;;2.70;93.90;;;;;;5071331;28;20226;-80
2021/01/04 04:44:40;;;;;;;35.67;20.53;;;2.70;93.90;;;;;;5057519;28;20197;-80
2021/01/04 04:47:28;;;;;;;36.47;20.07;;;2.70;93.90;;;;;;5079044;28;20272;-81
2021/01/04 04:50:12;;;;;;;36.17;19.20;;;2.70;93.90;;;;;;5069108;28;20222;-81
2021/01/04 04:53:10;;;;;;;37.23;19.03;;;2.70;93.90;;;;;;5073403;28;20243;-80
2021/01/04 04:55:56;;;;;;;31.97;15.90;;;2.70;93.90;;;;;;5063040;28;20205;-80
2021/01/04 04:58:35;;;;;;;35.17;17.90;;;2.70;93.90;;;;;;5077374;28;20193;-80
2021/01/04 05:01:16;;;;;;;31.57;17.77;;;2.70;93.90;;;;;;5073913;28;20288;-81
2021/01/04 05:04:02;;;;;;;29.40;15.57;;;2.70;93.90;;;;;;5072466;28;20192;-80
2021/01/04 05:06:41;;;;;;;32.70;17.97;;;2.80;93.90;;;;;;5077869;28;20223;-80
2021/01/04 05:09:24;;;;;;;30.80;17.37;;;2.80;93.90;;;;;;5075684;28;20220;-82
2021/01/04 05:12:06;;;;;;;32.70;17.10;;;2.80;93.90;;;;;;5062089;28;20248;-81
2021/01/04 05:14:41;;;;;;;23.20;12.97;;;2.80;93.90;;;;;;5054306;28;20524;-83
2021/01/04 05:17:30;;;;;;;31.53;17.47;;;2.90;93.90;;;;;;5064844;28;20323;-80
2021/01/04 05:20:12;;;;;;;29.30;17.77;;;2.80;93.90;;;;;;5078094;28;20235;-78
2021/01/04 05:23:05;;;;;;;33.50;18.33;;;2.80;93.80;;;;;;5057285;28;20513;-79
2021/01/04 05:25:56;;;;;;;35.23;18.50;;;2.80;93.90;;;;;;5059356;28;20507;-81
2021/01/04 05:28:59;;;;;;;20.83;11.13;;;2.90;93.90;;;;;;5076343;28;20204;-80
2021/01/04 05:31:52;;;;;;;29.57;15.50;;;2.90;93.90;;;;;;5063715;28;20200;-79
2021/01/04 05:34:24;;;;;;;31.40;17.67;;;2.90;93.80;;;;;;5073835;28;20793;-80
2021/01/04 05:37:24;;;;;;;32.97;18.30;;;2.90;93.80;;;;;;5075638;28;20259;-81
2021/01/04 05:40:18;;;;;;;38.57;19.83;;;2.90;93.80;;;;;;5079295;28;20206;-80
2021/01/04 05:43:09;;;;;;;32.27;17.90;;;3.10;93.90;;;;;;5077717;28;20554;-81
2021/01/04 05:45:45;;;;;;;29.83;15.93;;;2.90;93.90;;;;;;5065548;28;20418;-80
2021/01/04 05:48:33;;;;;;;29.20;16.63;;;3.00;93.90;;;;;;5076018;28;20218;-82
2021/01/04 05:51:06;;;;;;;38.10;19.37;;;2.90;93.80;;;;;;5067923;28;20200;-80
2021/01/04 05:53:33;;;;;;;35.53;19.03;;;3.00;93.80;;;;;;5070107;28;20205;-81
2021/01/04 05:56:01;;;;;;;34.20;18.23;;;3.00;93.80;;;;;;5074988;28;20204;-80
2021/01/04 05:58:32;;;;;;;34.77;17.57;;;3.00;93.80;;;;;;5063674;28;20201;-81
2021/01/04 06:01:13;;;;;;;39.57;21.50;;;3.00;93.80;;;;;;5068662;28;20651;-83
2021/01/04 06:03:40;;;;;;;36.50;19.93;;;3.00;93.80;;;;;;5066699;28;20194;-82
2021/01/04 06:06:12;;;;;;;32.37;16.57;;;3.00;93.80;;;;;;5065824;28;20212;-81
2021/01/04 06:08:40;;;;;;;34.23;19.23;;;2.90;93.80;;;;;;5066818;28;20197;-81
2021/01/04 06:11:09;;;;;;;31.90;16.07;;;3.00;93.80;;;;;;5082978;28;20294;-79
2021/01/04 06:13:39;;;;;;;36.73;17.80;;;3.00;93.80;;;;;;5077078;28;20443;-80
2021/01/04 06:16:10;;;;;;;35.70;19.17;;;3.00;93.80;;;;;;5069604;28;20452;-82
2021/01/04 06:18:45;;;;;;;37.80;19.47;;;3.00;93.80;;;;;;5077721;28;20201;-80
2021/01/04 06:21:45;;;;;;;37.17;19.90;;;3.00;93.80;;;;;;5085608;28;20221;-81
2021/01/04 06:24:24;;;;;;;40.60;22.17;;;3.00;93.80;;;;;;5087159;28;20220;-81
2021/01/04 06:26:56;;;;;;;40.97;20.67;;;3.10;93.80;;;;;;5089115;28;20509;-82
2021/01/04 06:29:36;;;;;;;39.73;21.17;;;3.00;93.80;;;;;;5087943;28;20222;-82
2021/01/04 06:32:07;;;;;;;35.87;17.83;;;3.00;93.80;;;;;;5081741;28;20220;-79
2021/01/04 06:34:37;;;;;;;33.87;16.97;;;3.00;93.70;;;;;;5089056;28;20177;-81
2021/01/04 06:37:14;;;;;;;38.67;18.33;;;3.00;93.70;;;;;;5097227;28;20514;-81
2021/01/04 06:39:57;;;;;;;43.30;23.30;;;2.90;93.70;;;;;;5084883;28;20208;-82
2021/01/04 06:42:25;;;;;;;40.07;21.30;;;3.00;93.70;;;;;;5083890;28;20265;-83
2021/01/04 06:45:07;;;;;;;46.23;24.87;;;3.00;93.70;;;;;;5079465;28;20216;-81
2021/01/04 06:47:48;;;;;;;46.57;23.33;;;3.00;93.80;;;;;;5069867;28;20203;-81
2021/01/04 06:50:22;;;;;;;42.47;21.37;;;3.10;93.80;;;;;;5086492;28;20218;-78
2021/01/04 06:53:26;;;;;;;47.80;24.70;;;3.10;93.80;;;;;;5082207;28;20235;-80
2021/01/04 06:56:30;;;;;;;47.70;24.83;;;3.00;93.80;;;;;;5079613;28;20477;-79
2021/01/04 06:59:29;;;;;;;45.73;24.73;;;3.00;93.70;;;;;;5080127;28;20404;-81
2021/01/04 07:02:32;;;;;;;45.10;25.40;;;3.00;93.70;;;;;;5085058;28;20493;-78
2021/01/04 07:05:32;;;;;;;46.03;22.70;;;3.00;93.80;;;;;;5088019;28;20172;-81
2021/01/04 07:08:39;;;;;;;44.83;24.83;;;3.00;93.80;;;;;;5079050;28;20193;-79
2021/01/04 07:11:23;;;;;;;43.93;25.00;;;3.00;93.70;;;;;;5072931;28;20635;-78
2021/01/04 07:14:03;;;;;;;46.53;22.50;;;3.00;93.70;;;;;;5067052;28;20286;-80
2021/01/04 07:16:55;;;;;;;41.17;23.27;;;3.10;93.70;;;;;;5072573;28;20512;-80
2021/01/04 07:19:53;;;;;;;40.00;22.77;;;3.00;93.70;;;;;;5075041;28;20193;-82
2021/01/04 07:22:33;;;;;;;39.93;20.17;;;3.10;93.80;;;;;;5071712;28;20700;-81
2021/01/04 07:25:13;;;;;;;40.50;20.17;;;3.10;93.70;;;;;;5066013;28;20206;-79
2021/01/04 07:27:48;;;;;;;40.70;22.63;;;3.10;93.70;;;;;;5069079;28;20205;-81
2021/01/04 07:30:42;;;;;;;39.40;21.60;;;3.10;93.70;;;;;;5059039;28;20814;-81
2021/01/04 07:33:23;;;;;;;43.60;22.57;;;3.10;93.70;;;;;;5060630;28;20201;-81
2021/01/04 07:35:58;;;;;;;39.83;21.80;;;3.20;93.70;;;;;;5068935;28;20201;-82
2021/01/04 07:38:36;;;;;;;41.30;22.63;;;3.20;93.70;;;;;;5069104;28;20272;-82
2021/01/04 07:41:19;;;;;;;37.20;22.60;;;3.30;93.70;;;;;;5059096;28;20275;-79
2021/01/04 07:44:21;;;;;;;42.00;22.00;;;3.20;93.60;;;;;;5065217;28;20438;-80
2021/01/04 07:47:34;;;;;;;39.57;21.33;;;3.30;93.60;;;;;;5061595;28;20243;-82
2021/01/04 07:50:31;;;;;;;38.50;21.07;;;3.30;93.60;;;;;;5063520;28;20625;-80
2021/01/04 07:53:35;;;;;;;34.47;19.67;;;3.30;93.60;;;;;;5051018;28;20875;-82
2021/01/04 07:56:48;;;;;;;43.63;22.07;;;3.30;93.50;;;;;;5060224;28;20208;-81
2021/01/04 07:59:38;;;;;;;38.27;20.33;;;3.30;93.50;;;;;;5066903;28;20978;-81
2021/01/04 08:02:32;;;;;;;18.83;9.83;;;3.40;93.60;;;;;;5070810;28;20198;-81
2021/01/04 08:05:54;;;;;;;32.93;18.60;;;3.40;93.50;;;;;;5060299;28;20224;-79
2021/01/04 08:08:44;;;;;;;31.67;16.03;;;3.40;93.50;;;;;;5067185;28;20478;-82
2021/01/04 08:11:47;;;;;;;40.67;22.50;;;3.40;93.40;;;;;;5065970;28;20668;-80
2021/01/04 08:14:40;;;;;;;32.80;16.03;;;3.50;93.40;;;;;;5068838;28;20659;-80
2021/01/04 08:17:15;;;;;;;33.53;15.43;;;3.40;93.50;;;;;;5060188;28;20197;-82
2021/01/04 08:19:45;;;;;;;43.00;24.13;;;3.40;93.50;;;;;;5066920;28;20501;-81
2021/01/04 08:22:29;;;;;;;32.37;14.43;;;3.40;93.40;;;;;;5067043;28;20206;-79
2021/01/04 08:25:05;;;;;;;37.03;17.73;;;3.40;93.50;;;;;;5063279;28;20201;-79
2021/01/04 08:27:44;;;;;;;41.70;23.03;;;3.40;93.40;;;;;;5067148;28;20237;-80
2021/01/04 08:30:18;;;;;;;47.50;24.40;;;3.40;93.50;;;;;;5070183;28;20228;-80
2021/01/04 08:32:52;;;;;;;34.83;19.13;;;3.40;93.50;;;;;;5091260;28;20212;-80
2021/01/04 08:35:36;;;;;;;44.87;23.43;;;3.40;93.50;;;;;;5084271;28;20428;-81
2021/01/04 08:38:31;;;;;;;44.80;25.17;;;3.40;93.40;;;;;;5063665;28;20198;-81
2021/01/04 08:41:01;;;;;;;23.97;13.13;;;3.50;93.40;;;;;;5072603;28;20190;-82
2021/01/04 08:43:40;;;;;;;38.63;19.63;;;3.60;93.50;;;;;;5072202;28;20201;-81
2021/01/04 08:46:32;;;;;;;27.83;13.03;;;3.50;93.40;;;;;;5075366;28;20301;-80
2021/01/04 08:49:15;;;;;;;41.00;21.83;;;3.50;93.40;;;;;;5084052;28;20191;-80
2021/01/04 08:51:45;;;;;;;28.23;14.67;;;3.50;93.30;;;;;;5084662;28;20205;-81
2021/01/04 08:54:25;;;;;;;27.67;14.37;;;3.50;93.40;;;;;;5074245;28;20612;-80
2021/01/04 08:57:05;;;;;;;28.40;16.37;;;3.50;93.40;;;;;;5077336;28;20197;-78
2021/01/04 08:59:36;;;;;;;39.57;19.77;;;3.50;93.40;;;;;;5072693;28;20470;-81
2021/01/04 09:02:20;;;;;;;28.10;15.93;;;3.50;93.40;;;;;;5083007;28;20299;-80
2021/01/04 09:04:59;;;;;;;40.27;21.93;;;3.50;93.40;;;;;;5080349;28;20772;-78
2021/01/04 09:07:27;;;;;;;34.27;18.23;;;3.50;93.40;;;;;;5068710;28;20638;-81
2021/01/04 09:10:00;;;;;;;32.47;18.67;;;3.50;93.40;;;;;;5063892;28;20881;-79
2021/01/04 09:12:37;;;;;;;41.77;20.13;;;3.60;93.30;;;;;;5075873;28;21017;-80
2021/01/04 09:15:12;;;;;;;30.87;16.70;;;3.60;93.30;;;;;;5077190;28;20210;-78
2021/01/04 09:17:45;;;;;;;43.83;23.17;;;3.60;93.40;;;;;;5067323;28;20203;-80
2021/01/04 09:20:31;;;;;;;41.43;24.03;;;3.60;93.30;;;;;;5060064;28;20303;-82
2021/01/04 09:23:07;;;;;;;45.73;23.73;;;3.60;93.40;;;;;;5065959;28;20494;-80
2021/01/04 09:25:52;;;;;;;41.10;23.90;;;3.60;93.40;;;;;;5061410;28;20242;-80
2021/01/04 09:28:23;;;;;;;47.80;25.80;;;3.70;93.40;;;;;;5057065;28;20812;-79
2021/01/04 09:30:53;;;;;;;50.00;25.17;;;3.70;93.30;;;;;;5070981;28;20372;-79
2021/01/04 09:33:24;;;;;;;41.43;23.70;;;3.70;93.40;;;;;;5062966;28;20280;-82
2021/01/04 09:36:01;;;;;;;41.87;24.43;;;3.70;93.30;;;;;;5069009;28;20803;-81
2021/01/04 09:38:47;;;;;;;48.97;25.70;;;3.70;93.30;;;;;;5065895;28;20200;-80
2021/01/04 09:41:16;;;;;;;47.67;24.63;;;3.70;93.30;;;;;;5068419;28;20219;-80
2021/01/04 09:43:43;;;;;;;38.07;19.83;;;3.70;93.30;;;;;;5063821;28;20193;-79
2021/01/04 09:46:21;;;;;;;40.83;23.37;;;3.80;93.30;;;;;;5063269;28;20770;-78
2021/01/04 09:48:56;;;;;;;42.67;23.67;;;3.80;93.20;;;;;;5072026;28;20662;-79
2021/01/04 09:51:33;;;;;;;47.80;25.73;;;3.80;93.30;;;;;;5063130;28;20223;-80
2021/01/04 09:54:04;;;;;;;43.03;24.17;;;3.80;93.20;;;;;;5065689;28;20556;-80
2021/01/04 09:56:35;;;;;;;48.57;26.73;;;3.80;93.30;;;;;;5073262;28;20287;-79
2021/01/04 09:59:09;;;;;;;43.20;24.50;;;3.80;93.20;;;;;;5092025;28;20725;-78
2021/01/04 10:01:47;;;;;;;44.80;24.20;;;3.80;93.20;;;;;;5088309;28;20216;-78
2021/01/04 10:04:25;;;;;;;45.37;24.77;;;3.90;93.20;;;;;;5084462;28;20437;-79
2021/01/04 10:06:53;;;;;;;43.80;24.63;;;3.90;93.30;;;;;;5089144;28;20211;-79
2021/01/04 10:09:31;;;;;;;40.23;22.13;;;3.90;93.20;;;;;;5089991;28;20225;-79
2021/01/04 10:12:02;;;;;;;44.47;24.67;;;3.90;93.20;;;;;;5085807;28;20190;-79
2021/01/04 10:14:30;;;;;;;45.97;24.73;;;3.80;93.20;;;;;;5085239;28;20286;-78
2021/01/04 10:17:03;;;;;;;42.87;21.43;;;3.90;93.20;;;;;;5067340;28;20225;-78
2021/01/04 10:19:35;;;;;;;29.47;15.70;;;3.90;93.30;;;;;;5062635;28;20453;-79
2021/01/04 10:22:08;;;;;;;36.83;18.73;;;3.90;93.30;;;;;;5064925;28;20658;-79
2021/01/04 10:24:41;;;;;;;46.27;25.93;;;3.90;93.20;;;;;;5064009;28;20251;-78
2021/01/04 10:27:09;;;;;;;47.93;25.73;;;3.90;93.30;;;;;;5066524;28;20205;-79
2021/01/04 10:29:58;;;;;;;36.00;19.30;;;3.90;93.30;;;;;;5063920;28;20665;-78
2021/01/04 10:32:29;;;;;;;42.97;22.33;;;3.90;93.20;;;;;;5068280;28;20386;-79
2021/01/04 10:34:57;;;;;;;47.27;25.47;;;3.90;93.00;;;;;;5063783;28;20725;-79
2021/01/04 10:37:47;;;;;;;48.03;24.10;;;3.80;93.10;;;;;;5067322;28;20199;-81
2021/01/04 10:40:17;;;;;;;45.47;21.90;;;4.00;93.20;;;;;;5063903;28;20297;-81
2021/01/04 10:42:48;;;;;;;39.90;21.77;;;4.00;93.20;;;;;;5066222;28;20716;-79
2021/01/04 10:45:18;;;;;;;40.57;21.73;;;3.90;93.10;;;;;;5062481;28;20211;-80
2021/01/04 10:47:58;;;;;;;40.30;22.20;;;4.00;93.20;;;;;;5064128;28;21129;-78
2021/01/04 10:50:33;;;;;;;27.47;16.20;;;4.00;93.20;;;;;;5062871;28;20218;-77
2021/01/04 10:53:04;;;;;;;45.97;23.73;;;4.00;93.10;;;;;;5070622;28;20566;-79
2021/01/04 10:55:35;;;;;;;43.67;23.93;;;4.00;93.10;;;;;;5063497;28;20198;-79
2021/01/04 10:58:17;;;;;;;36.33;20.27;;;4.10;93.20;;;;;;5065992;28;20366;-80
2021/01/04 11:00:51;;;;;;;22.47;14.70;;;4.10;93.00;;;;;;5063289;28;20369;-78
2021/01/04 11:03:20;;;;;;;42.70;23.40;;;4.10;92.90;;;;;;5061530;28;21024;-78
2021/01/04 11:05:49;;;;;;;42.07;22.83;;;4.20;93.10;;;;;;5058965;28;21016;-82
2021/01/04 11:08:27;;;;;;;35.97;18.63;;;4.10;93.10;;;;;;5050996;28;20337;-79
2021/01/04 11:11:07;;;;;;;46.27;26.83;;;4.10;93.10;;;;;;5065081;28;20219;-79
2021/01/04 11:13:35;;;;;;;47.30;26.47;;;4.10;93.10;;;;;;5065215;28;20191;-82
2021/01/04 11:16:13;;;;;;;51.93;27.87;;;4.10;93.10;;;;;;5063378;28;20306;-78
2021/01/04 11:18:51;;;;;;;52.33;29.40;;;4.20;93.10;;;;;;5063410;28;20632;-81
2021/01/04 11:21:20;;;;;;;48.67;25.80;;;4.20;93.00;;;;;;5073657;28;20200;-80
2021/01/04 11:23:48;;;;;;;50.50;28.23;;;4.20;92.90;;;;;;5083193;28;20501;-82
2021/01/04 11:26:16;;;;;;;52.60;26.50;;;4.20;92.90;;;;;;5084010;28;20249;-80
2021/01/04 11:28:43;;;;;;;52.03;28.83;;;4.20;93.00;;;;;;5078541;28;20568;-81
2021/01/04 11:31:13;;;;;;;46.10;24.23;;;4.20;93.00;;;;;;5059409;28;20230;-79
2021/01/04 11:33:41;;;;;;;50.00;26.77;;;4.20;93.10;;;;;;5019640;28;20874;-81
2021/01/04 11:36:12;;;;;;;54.60;27.37;;;4.30;93.00;;;;;;5070120;28;20244;-80
2021/01/04 11:38:39;;;;;;;47.60;23.43;;;4.20;93.00;;;;;;5073173;28;20728;-80
2021/01/04 11:41:09;;;;;;;52.57;28.87;;;4.20;93.00;;;;;;5059375;28;20195;-81
2021/01/04 11:43:37;;;;;;;55.60;28.53;;;4.20;93.10;;;;;;5020030;28;20291;-81
2021/01/04 11:46:04;;;;;;;55.67;28.77;;;4.20;93.10;;;;;;5060759;28;20189;-79
2021/01/04 11:48:32;;;;;;;59.63;31.20;;;4.30;93.10;;;;;;5063454;28;20303;-79
2021/01/04 11:51:01;;;;;;;60.73;32.67;;;4.30;93.20;;;;;;5058820;28;20216;-80
2021/01/04 11:53:30;;;;;;;62.57;32.60;;;4.20;93.10;;;;;;4999434;28;20724;-80
2021/01/04 11:55:58;;;;;;;59.73;33.63;;;4.30;93.10;;;;;;5062958;28;20208;-77
2021/01/04 11:58:26;;;;;;;59.70;34.90;;;4.40;93.10;;;;;;5064774;28;20177;-79
2021/01/04 12:00:55;;;;;;;58.33;29.70;;;4.30;93.00;;;;;;5087094;28;20196;-79
2021/01/04 12:03:23;;;;;;;56.57;30.90;;;4.40;93.00;;;;;;5029084;28;20230;-81
2021/01/04 12:05:50;;;;;;;64.57;34.00;;;4.40;92.90;;;;;;5081553;28;20201;-78
2021/01/04 12:08:18;;;;;;;58.87;33.30;;;4.40;92.90;;;;;;5083168;28;20668;-78
2021/01/04 12:10:47;;;;;;;66.33;33.63;;;4.40;93.00;;;;;;5065588;28;21175;-78
2021/01/04 12:13:14;;;;;;;57.20;32.77;;;4.50;93.00;;;;;;4997672;28;20750;-79
2021/01/04 12:15:42;;;;;;;49.83;25.47;;;4.50;92.90;;;;;;5045116;28;20908;-80
2021/01/04 12:18:10;;;;;;;48.43;25.03;;;4.60;92.90;;;;;;5064380;28;20230;-79
2021/01/04 12:20:38;;;;;;;52.60;26.90;;;4.60;92.70;;;;;;5063200;28;20581;-80
2021/01/04 12:23:05;;;;;;;42.97;21.37;;;4.60;92.80;;;;;;4999916;28;20486;-78
2021/01/04 12:25:33;;;;;;;57.40;30.20;;;4.50;92.70;;;;;;5064013;28;20302;-79
2021/01/04 12:28:02;;;;;;;49.90;27.53;;;4.50;92.90;;;;;;5060418;28;20642;-80
2021/01/04 12:30:32;;;;;;;61.07;32.00;;;4.50;93.00;;;;;;5063690;28;20687;-78
2021/01/04 12:33:01;;;;;;;62.20;30.43;;;4.60;92.90;;;;;;5010532;28;20919;-79
2021/01/04 12:35:29;;;;;;;60.17;32.43;;;4.60;92.90;;;;;;5048587;28;20215;-80
2021/01/04 12:37:56;;;;;;;61.37;32.47;;;4.60;93.00;;;;;;5062260;28;20698;-78
2021/01/04 12:40:26;;;;;;;50.27;25.33;;;4.60;92.90;;;;;;5059713;28;20458;-79
2021/01/04 12:42:55;;;;;;;53.60;26.37;;;4.60;92.90;;;;;;5064855;28;20201;-79
2021/01/04 12:45:24;;;;;;;53.57;27.47;;;4.50;92.90;;;;;;5068241;28;20223;-79
2021/01/04 12:47:52;;;;;;;42.97;24.37;;;4.70;93.00;;;;;;5064923;28;20440;-80
2021/01/04 12:50:20;;;;;;;67.33;33.07;;;4.50;93.00;;;;;;5062508;28;20212;-78
2021/01/04 12:52:49;;;;;;;66.27;35.70;;;4.50;93.10;;;;;;5083608;28;20205;-79
2021/01/04 12:55:17;;;;;;;69.23;36.20;;;4.50;93.10;;;;;;5076476;28;20207;-81
2021/01/04 12:57:47;;;;;;;61.63;31.87;;;4.50;93.10;;;;;;5065433;28;20850;-78
2021/01/04 13:00:22;;;;;;;63.40;32.90;;;4.50;93.10;;;;;;5071767;28;20611;-79
2021/01/04 13:02:51;;;;;;;66.63;33.10;;;4.60;93.10;;;;;;5072258;28;20259;-79
2021/01/04 13:05:19;;;;;;;61.40;30.10;;;4.60;93.10;;;;;;5065380;28;20609;-78
2021/01/04 13:07:47;;;;;;;68.33;35.17;;;4.60;93.10;;;;;;5069049;28;20204;-79
2021/01/04 13:10:16;;;;;;;61.97;35.13;;;4.50;93.10;;;;;;5064664;28;20654;-79
2021/01/04 13:12:44;;;;;;;72.77;36.53;;;4.60;93.20;;;;;;5062868;28;20273;-80
2021/01/04 13:15:16;;;;;;;71.93;33.93;;;4.60;93.20;;;;;;5066218;28;20197;-81
2021/01/04 13:17:44;;;;;;;55.97;29.63;;;4.70;93.10;;;;;;5063553;28;20243;-79
2021/01/04 13:20:14;;;;;;;65.40;32.73;;;4.60;93.00;;;;;;5048320;28;20654;-77
2021/01/04 13:22:42;;;;;;;63.40;31.77;;;4.60;93.10;;;;;;5062300;28;20226;-78
2021/01/04 13:25:12;;;;;;;51.97;25.90;;;4.60;93.20;;;;;;5079864;28;20196;-80
2021/01/04 13:27:39;;;;;;;65.70;34.00;;;4.60;93.30;;;;;;5071611;28;20575;-78
2021/01/04 13:30:09;;;;;;;71.53;36.83;;;4.60;93.30;;;;;;5070972;28;20321;-79